createdAt,value
2023-07-18T00:04:09.082Z,100802.88
2023-07-18T00:09:10.827Z,100810.16
2023-07-18T00:14:12.420Z,100820.78
2023-07-18T00:19:13.981Z,100814.31
2023-07-18T00:24:16.190Z,100815.84
2023-07-18T00:29:18.182Z,100812.88
2023-07-18T00:34:19.909Z,100814.31
2023-07-18T00:39:21.502Z,100807.03
2023-07-18T00:44:23.070Z,100812.19
2023-07-18T00:49:26.818Z,100809.97
2023-07-18T00:54:29.667Z,100795.94
2023-07-18T00:59:32.361Z,100797.25
2023-07-18T01:04:33.935Z,100788.34
2023-07-18T01:09:35.525Z,100807.41
2023-07-18T01:14:37.099Z,100810.41
2023-07-18T01:19:38.917Z,100816.19
2023-07-18T01:24:40.688Z,100811.13
2023-07-18T01:29:42.096Z,100821.44
2023-07-18T01:34:43.484Z,100815.03
2023-07-18T01:39:45.377Z,100813.16
2023-07-18T01:44:46.825Z,100800.94
2023-07-18T01:49:48.639Z,100804.97
2023-07-18T01:54:50.049Z,100798.16
2023-07-18T01:59:53.577Z,100802.34
2023-07-18T02:04:57.051Z,100799.31
2023-07-18T02:10:00.969Z,100785.00
2023-07-18T02:15:06.474Z,100792.59
2023-07-18T02:20:10.519Z,100794.63
2023-07-18T02:25:13.223Z,100803.03
2023-07-18T02:30:15.406Z,100809.19
2023-07-18T02:35:20.020Z,100799.72
2023-07-18T02:40:22.952Z,100812.31
2023-07-18T02:45:24.583Z,100806.09
2023-07-18T02:50:27.340Z,100798.78
2023-07-18T02:55:29.066Z,100791.66
2023-07-18T03:00:32.559Z,100799.31
2023-07-18T03:05:34.344Z,100799.78
2023-07-18T03:10:38.802Z,100790.09
2023-07-18T03:15:41.135Z,100801.06
2023-07-18T03:20:42.707Z,100805.31
2023-07-18T03:25:44.945Z,100792.88
2023-07-18T03:30:46.790Z,100797.94
2023-07-18T03:35:51.086Z,100795.97
2023-07-18T03:40:54.061Z,100800.16
2023-07-18T03:45:56.105Z,100790.88
2023-07-18T03:50:57.705Z,100792.59
2023-07-18T03:56:07.195Z,100775.94
2023-07-18T04:01:11.556Z,100786.09
2023-07-18T04:06:13.201Z,100774.53
2023-07-18T04:11:14.799Z,100774.63
2023-07-18T04:16:16.526Z,100775.94
2023-07-18T04:21:18.384Z,100772.13
2023-07-18T04:26:20.158Z,100767.59
2023-07-18T04:31:22.217Z,100756.69
2023-07-18T04:36:25.483Z,100760.94
2023-07-18T04:41:30.743Z,100752.50
2023-07-18T04:46:39.713Z,100746.34
2023-07-18T04:51:41.591Z,100743.16
2023-07-18T04:56:43.674Z,100734.50
2023-07-18T05:01:45.365Z,100734.13
2023-07-18T05:06:46.995Z,100732.16
2023-07-18T05:11:48.915Z,100733.16
2023-07-18T05:16:50.544Z,100724.78
2023-07-18T05:21:52.125Z,100729.50
2023-07-18T05:26:54.094Z,100723.53
2023-07-18T05:31:59.682Z,100706.31
2023-07-18T05:37:02.157Z,100701.84
2023-07-18T05:42:03.942Z,100688.91
2023-07-18T05:47:06.389Z,100693.91
2023-07-18T05:52:08.240Z,100684.94
2023-07-18T05:57:10.318Z,100675.56
2023-07-18T06:02:12.223Z,100676.41
2023-07-18T06:07:14.051Z,100664.97
2023-07-18T06:12:15.647Z,100679.97
2023-07-18T06:17:17.760Z,100670.22
2023-07-18T06:22:19.549Z,100664.06
2023-07-18T06:27:21.228Z,100672.69
2023-07-18T06:32:25.122Z,100677.63
2023-07-18T06:37:26.888Z,100669.78
2023-07-18T06:42:28.437Z,100667.38
2023-07-18T06:47:30.110Z,100651.38
2023-07-18T06:52:34.766Z,100659.97
2023-07-18T06:57:37.885Z,100650.38
2023-07-18T07:02:39.713Z,100626.38
2023-07-18T07:07:41.662Z,100637.59
2023-07-18T07:12:43.301Z,100635.72
2023-07-18T07:17:47.724Z,100615.09
2023-07-18T07:22:49.759Z,100617.19
2023-07-18T07:27:51.446Z,100610.50
2023-07-18T07:32:53.354Z,100603.72
2023-07-18T07:37:55.299Z,100594.69
2023-07-18T07:42:56.906Z,100592.63
2023-07-18T07:47:58.702Z,100591.28
2023-07-18T07:53:00.529Z,100583.72
2023-07-18T07:58:02.128Z,100580.63
2023-07-18T08:03:03.774Z,100583.66
2023-07-18T08:08:05.832Z,100579.84
2023-07-18T08:13:07.522Z,100573.00
2023-07-18T08:18:09.178Z,100564.16
2023-07-18T08:23:10.993Z,100561.75
2023-07-18T08:28:12.699Z,100553.44
2023-07-18T08:33:16.463Z,100559.47
2023-07-18T08:38:18.391Z,100552.81
2023-07-18T08:43:20.132Z,100545.84
2023-07-18T08:48:21.865Z,100530.09
2023-07-18T08:53:23.687Z,100521.56
2023-07-18T08:58:27.198Z,100518.03
2023-07-18T09:03:28.935Z,100509.84
2023-07-18T09:08:45.800Z,100508.34
2023-07-18T09:13:48.447Z,100510.59
2023-07-18T09:18:51.280Z,100506.25
2023-07-18T09:23:54.238Z,100483.34
2023-07-18T09:28:57.026Z,100500.16
2023-07-18T09:33:58.761Z,100543.47
2023-07-18T09:39:01.194Z,100552.06
2023-07-18T09:44:26.916Z,100557.19
2023-07-18T09:54:35.017Z,100549.72
2023-07-18T09:59:39.778Z,100536.31
2023-07-18T10:04:41.558Z,100479.38
2023-07-18T10:09:43.641Z,100438.69
2023-07-18T10:14:57.715Z,100382.78
2023-07-18T10:19:59.715Z,100325.38
2023-07-18T10:25:08.416Z,100346.47
2023-07-18T10:30:14.464Z,100362.16
2023-07-18T10:35:19.091Z,100377.97
2023-07-18T10:40:37.959Z,100471.63
2023-07-18T10:45:44.064Z,100525.97
2023-07-18T10:50:47.688Z,100517.16
2023-07-18T10:55:50.088Z,100454.38
2023-07-18T11:00:52.308Z,100561.50
2023-07-18T11:05:54.788Z,100541.22
2023-07-18T11:11:01.724Z,100496.81
2023-07-18T11:16:15.327Z,100520.66
2023-07-18T11:21:21.054Z,100493.66
2023-07-18T11:26:22.875Z,100471.41
2023-07-18T11:31:39.564Z,100430.03
2023-07-18T11:36:43.690Z,100412.25
2023-07-18T11:41:46.005Z,100404.16
2023-07-18T11:46:47.615Z,100372.38
2023-07-18T11:51:49.461Z,100313.13
2023-07-18T11:56:51.067Z,100288.09
2023-07-18T12:01:52.734Z,100275.66
2023-07-18T12:06:54.601Z,100266.28
2023-07-18T12:11:56.368Z,100266.97
2023-07-18T12:16:58.134Z,100268.63
2023-07-18T12:21:59.924Z,100280.03
2023-07-18T12:27:06.661Z,100278.63
2023-07-18T12:32:10.824Z,100286.16
2023-07-18T12:37:12.637Z,100283.31
2023-07-18T12:42:14.486Z,100290.16
2023-07-18T12:47:16.216Z,100278.59
2023-07-18T12:52:17.807Z,100242.69
2023-07-18T12:57:19.454Z,100232.44
2023-07-18T13:02:21.378Z,100220.59
2023-07-18T13:07:22.969Z,100210.63
2023-07-18T13:12:24.920Z,100202.91
2023-07-18T13:17:26.508Z,100218.34
2023-07-18T13:22:28.255Z,100222.56
2023-07-18T13:27:29.891Z,100212.13
2023-07-18T13:32:32.272Z,100197.69
2023-07-18T13:37:34.356Z,100203.91
2023-07-18T13:42:35.937Z,100200.50
2023-07-18T13:47:44.546Z,100209.88
2023-07-18T13:52:47.141Z,100215.97
2023-07-18T13:57:48.744Z,100214.59
2023-07-18T14:02:50.925Z,100200.75
2023-07-18T14:07:52.631Z,100204.06
2023-07-18T14:12:54.232Z,100210.06
2023-07-18T14:17:55.899Z,100190.22
2023-07-18T14:22:57.562Z,100179.88
2023-07-18T14:27:59.486Z,100175.88
2023-07-18T14:33:06.834Z,100169.22
2023-07-18T14:38:09.211Z,100146.56
2023-07-18T14:43:11.549Z,100114.72
2023-07-18T14:48:13.169Z,100111.50
2023-07-18T14:53:14.749Z,100109.44
2023-07-18T14:58:16.582Z,100099.59
2023-07-18T15:03:18.207Z,100085.84
2023-07-18T15:08:19.818Z,100086.78
2023-07-18T15:13:21.467Z,100090.28
2023-07-18T15:18:23.193Z,100100.25
2023-07-18T15:23:24.755Z,100096.44
2023-07-18T15:28:26.558Z,100109.84
2023-07-18T15:33:28.378Z,100089.06
2023-07-18T15:38:29.993Z,100070.88
2023-07-18T15:43:33.332Z,100069.06
2023-07-18T15:48:34.983Z,100069.31
2023-07-18T15:53:36.563Z,100059.81
2023-07-18T15:58:38.170Z,100049.28
2023-07-18T16:03:40.036Z,100054.00
2023-07-18T16:08:41.871Z,100044.06
2023-07-18T16:13:47.249Z,100032.47
2023-07-18T16:19:01.091Z,100028.88
2023-07-18T16:24:03.102Z,100021.38
2023-07-18T16:29:04.687Z,100039.72
2023-07-18T16:34:06.384Z,100052.19
2023-07-18T16:39:07.983Z,100059.72
2023-07-18T16:44:10.951Z,100042.97
2023-07-18T16:49:12.676Z,100043.75
2023-07-18T16:54:14.268Z,100048.53
2023-07-18T16:59:15.952Z,100041.50
2023-07-18T17:04:17.794Z,100005.75
2023-07-18T17:09:19.567Z,99967.59
2023-07-18T17:14:21.212Z,100028.72
2023-07-18T17:19:22.799Z,100164.50
2023-07-18T17:24:26.881Z,100048.47
2023-07-18T17:29:28.571Z,99980.47
2023-07-18T17:34:30.244Z,99912.81
2023-07-18T17:39:36.174Z,99886.56
2023-07-18T17:44:37.803Z,99887.34
2023-07-18T17:49:39.370Z,99964.06
2023-07-18T17:54:41.305Z,99992.69
2023-07-18T17:59:42.978Z,99982.31
2023-07-18T18:04:47.682Z,99984.84
2023-07-18T18:09:49.314Z,99992.59
2023-07-18T18:14:51.032Z,99983.53
2023-07-18T18:19:52.681Z,99992.84
2023-07-18T18:24:54.287Z,100053.47
2023-07-18T18:29:55.891Z,100090.00
2023-07-18T18:35:07.133Z,100206.81
2023-07-18T18:40:10.761Z,99991.47
2023-07-18T18:45:13.368Z,100028.50
2023-07-18T18:50:17.028Z,100120.88
2023-07-18T18:55:20.247Z,99945.09
2023-07-18T19:00:22.744Z,99989.13
2023-07-18T19:05:24.509Z,99999.25
2023-07-18T19:10:27.752Z,100021.84
2023-07-18T19:15:29.650Z,100015.47
2023-07-18T19:20:31.221Z,100034.00
2023-07-18T19:25:33.140Z,100025.56
2023-07-18T19:30:34.863Z,100042.34
2023-07-18T19:35:37.211Z,100021.84
2023-07-18T19:40:38.816Z,99999.66
2023-07-18T19:45:40.527Z,100007.47
2023-07-18T19:50:43.921Z,100055.66
2023-07-18T19:55:46.343Z,100099.75
2023-07-18T20:00:47.937Z,100061.69
2023-07-18T20:05:49.751Z,100063.22
2023-07-18T20:10:51.365Z,100090.25
2023-07-18T20:15:54.657Z,100079.38
2023-07-18T20:20:56.331Z,100037.22
2023-07-18T20:26:00.068Z,100025.00
2023-07-18T20:31:03.565Z,100047.28
2023-07-18T20:36:05.407Z,100047.13
2023-07-18T20:41:09.897Z,100035.06
2023-07-18T20:46:14.176Z,100043.34
2023-07-18T20:51:15.815Z,100028.81
2023-07-18T20:56:17.462Z,100032.25
2023-07-18T21:01:19.631Z,100031.09
2023-07-18T21:06:21.700Z,100022.56
2023-07-18T21:11:23.404Z,100036.25
2023-07-18T21:16:25.361Z,100022.47
2023-07-18T21:21:27.047Z,100022.50
2023-07-18T21:26:28.662Z,100018.47
2023-07-18T21:31:30.343Z,100026.53
2023-07-18T21:36:32.070Z,100023.22
2023-07-18T21:41:34.714Z,100006.34
2023-07-18T21:46:36.344Z,100005.53
2023-07-18T21:51:40.917Z,100010.31
2023-07-18T21:56:42.516Z,100023.09
2023-07-18T22:01:44.282Z,100027.31
2023-07-18T22:06:45.895Z,100011.03
2023-07-18T22:11:48.009Z,100024.91
2023-07-18T22:16:49.691Z,100026.06
2023-07-18T22:21:51.328Z,100030.00
2023-07-18T22:26:52.947Z,100021.72
2023-07-18T22:31:54.572Z,100012.94
2023-07-18T22:36:56.342Z,100021.56
2023-07-18T22:42:21.753Z,100009.69
2023-07-18T22:47:23.431Z,100009.13
2023-07-18T22:52:25.061Z,100021.03
2023-07-18T22:57:26.707Z,100025.81
2023-07-18T23:02:28.345Z,100033.06
2023-07-18T23:07:30.025Z,100020.38
2023-07-18T23:12:31.775Z,100018.41
2023-07-18T23:17:33.368Z,100008.97
2023-07-18T23:22:35.216Z,100024.19
2023-07-18T23:27:37.396Z,100026.91
2023-07-18T23:32:43.434Z,100025.25
2023-07-18T23:37:45.086Z,100018.38
2023-07-18T23:42:46.741Z,100009.78
2023-07-18T23:47:48.422Z,100012.59
2023-07-18T23:52:50.078Z,100012.66
2023-07-18T23:57:52.004Z,100007.09
